sensor_id;sensor_type;location;lat;lon;timestamp;pressure;altitude;pressure_sealevel;temperature;humidity
10466;BME280;5280;42.600;23.556;2023-08-06T00:01:54;92363.63;;;21.72;83.44
10466;BME280;5280;42.600;23.556;2023-08-06T00:04:23;92369.84;;;21.72;83.24
10466;BME280;5280;42.600;23.556;2023-08-06T00:06:50;92360.78;;;21.67;84.87
10466;BME280;5280;42.600;23.556;2023-08-06T00:09:17;92366.94;;;21.67;84.83
10466;BME280;5280;42.600;23.556;2023-08-06T00:11:45;92378.53;;;21.68;84.03
10466;BME280;5280;42.600;23.556;2023-08-06T00:14:12;92358.31;;;21.52;85.70
10466;BME280;5280;42.600;23.556;2023-08-06T00:16:42;92370.72;;;21.60;88.02
10466;BME280;5280;42.600;23.556;2023-08-06T00:19:09;92341.97;;;21.54;88.76
10466;BME280;5280;42.600;23.556;2023-08-06T00:21:35;92302.09;;;21.51;90.29
10466;BME280;5280;42.600;23.556;2023-08-06T00:24:02;92329.16;;;21.56;91.05
10466;BME280;5280;42.600;23.556;2023-08-06T00:26:29;92325.88;;;21.47;92.33
10466;BME280;5280;42.600;23.556;2023-08-06T00:28:57;92328.81;;;21.32;92.94
10466;BME280;5280;42.600;23.556;2023-08-06T00:31:24;92332.38;;;21.26;93.75
10466;BME280;5280;42.600;23.556;2023-08-06T00:33:50;92330.91;;;21.17;94.60
10466;BME280;5280;42.600;23.556;2023-08-06T00:36:17;92315.22;;;21.14;94.70
10466;BME280;5280;42.600;23.556;2023-08-06T00:38:44;92322.25;;;21.15;93.50
10466;BME280;5280;42.600;23.556;2023-08-06T00:41:11;92340.84;;;21.23;95.48
10466;BME280;5280;42.600;23.556;2023-08-06T00:43:38;92322.03;;;21.23;94.73
10466;BME280;5280;42.600;23.556;2023-08-06T00:46:06;92298.28;;;21.20;96.08
10466;BME280;5280;42.600;23.556;2023-08-06T00:48:33;92306.94;;;21.22;96.17
10466;BME280;5280;42.600;23.556;2023-08-06T00:51:00;92216.97;;;20.67;95.47
10466;BME280;5280;42.600;23.556;2023-08-06T00:53:28;92298.91;;;21.16;94.86
10466;BME280;5280;42.600;23.556;2023-08-06T00:55:57;92291.22;;;21.13;95.79
10466;BME280;5280;42.600;23.556;2023-08-06T00:58:24;92287.50;;;21.07;94.73
10466;BME280;5280;42.600;23.556;2023-08-06T01:00:51;92280.50;;;21.06;93.62
10466;BME280;5280;42.600;23.556;2023-08-06T01:03:20;92282.75;;;21.09;95.22
10466;BME280;5280;42.600;23.556;2023-08-06T01:05:47;92273.03;;;21.08;96.45
10466;BME280;5280;42.600;23.556;2023-08-06T01:08:28;92285.66;;;21.14;96.07
10466;BME280;5280;42.600;23.556;2023-08-06T01:11:05;92279.88;;;21.11;95.61
10466;BME280;5280;42.600;23.556;2023-08-06T01:13:42;92276.34;;;21.10;95.91
10466;BME280;5280;42.600;23.556;2023-08-06T01:16:15;92248.06;;;21.01;95.34
10466;BME280;5280;42.600;23.556;2023-08-06T01:18:44;92184.34;;;20.63;96.09
10466;BME280;5280;42.600;23.556;2023-08-06T01:21:13;92260.84;;;21.12;96.69
10466;BME280;5280;42.600;23.556;2023-08-06T01:23:40;92248.06;;;21.01;97.24
10466;BME280;5280;42.600;23.556;2023-08-06T01:26:14;92246.41;;;21.00;97.06
10466;BME280;5280;42.600;23.556;2023-08-06T01:31:32;92229.09;;;20.96;97.78
10466;BME280;5280;42.600;23.556;2023-08-06T01:34:01;92223.09;;;20.87;98.66
10466;BME280;5280;42.600;23.556;2023-08-06T01:36:30;92233.44;;;20.84;99.47
10466;BME280;5280;42.600;23.556;2023-08-06T01:38:57;92253.06;;;20.91;99.96
10466;BME280;5280;42.600;23.556;2023-08-06T01:41:24;92232.03;;;20.75;100.00
10466;BME280;5280;42.600;23.556;2023-08-06T01:43:53;92225.19;;;20.79;100.00
10466;BME280;5280;42.600;23.556;2023-08-06T01:46:20;92222.91;;;20.82;100.00
10466;BME280;5280;42.600;23.556;2023-08-06T01:48:47;92227.88;;;20.85;100.00
10466;BME280;5280;42.600;23.556;2023-08-06T01:51:14;92225.59;;;20.82;100.00
10466;BME280;5280;42.600;23.556;2023-08-06T01:53:42;92248.09;;;20.88;100.00
10466;BME280;5280;42.600;23.556;2023-08-06T01:56:08;92243.16;;;20.85;100.00
10466;BME280;5280;42.600;23.556;2023-08-06T01:58:35;92213.03;;;20.76;100.00
10466;BME280;5280;42.600;23.556;2023-08-06T02:01:02;92211.13;;;20.83;100.00
10466;BME280;5280;42.600;23.556;2023-08-06T02:03:29;92222.31;;;20.87;100.00
10466;BME280;5280;42.600;23.556;2023-08-06T02:05:56;92214.19;;;20.93;100.00
10466;BME280;5280;42.600;23.556;2023-08-06T02:08:23;92218.34;;;20.89;100.00
10466;BME280;5280;42.600;23.556;2023-08-06T02:10:51;92153.19;;;20.49;100.00
10466;BME280;5280;42.600;23.556;2023-08-06T02:13:17;92215.88;;;20.88;100.00
10466;BME280;5280;42.600;23.556;2023-08-06T02:15:45;92178.94;;;20.77;100.00
10466;BME280;5280;42.600;23.556;2023-08-06T02:18:12;92197.75;;;20.77;100.00
10466;BME280;5280;42.600;23.556;2023-08-06T02:20:40;92213.66;;;20.72;100.00
10466;BME280;5280;42.600;23.556;2023-08-06T02:23:06;92214.88;;;20.76;100.00
10466;BME280;5280;42.600;23.556;2023-08-06T02:25:34;92155.31;;;20.21;100.00
10466;BME280;5280;42.600;23.556;2023-08-06T02:28:02;92224.59;;;20.63;100.00
10466;BME280;5280;42.600;23.556;2023-08-06T02:30:29;92219.69;;;20.60;100.00
10466;BME280;5280;42.600;23.556;2023-08-06T02:32:56;92239.28;;;20.61;100.00
10466;BME280;5280;42.600;23.556;2023-08-06T02:35:22;92237.22;;;20.63;100.00
10466;BME280;5280;42.600;23.556;2023-08-06T02:37:49;92238.25;;;20.62;100.00
10466;BME280;5280;42.600;23.556;2023-08-06T02:40:16;92244.03;;;20.52;100.00
10466;BME280;5280;42.600;23.556;2023-08-06T02:42:43;92236.22;;;20.44;100.00
10466;BME280;5280;42.600;23.556;2023-08-06T02:45:11;92211.22;;;20.24;100.00
10466;BME280;5280;42.600;23.556;2023-08-06T02:47:38;92256.84;;;20.50;100.00
10466;BME280;5280;42.600;23.556;2023-08-06T02:50:05;92265.09;;;20.49;100.00
10466;BME280;5280;42.600;23.556;2023-08-06T02:52:32;92270.09;;;20.52;100.00
10466;BME280;5280;42.600;23.556;2023-08-06T02:54:59;92269.25;;;20.38;100.00
10466;BME280;5280;42.600;23.556;2023-08-06T02:57:25;92256.25;;;20.35;100.00
10466;BME280;5280;42.600;23.556;2023-08-06T02:59:53;92238.69;;;20.33;100.00
10466;BME280;5280;42.600;23.556;2023-08-06T03:02:21;92233.13;;;20.34;100.00
10466;BME280;5280;42.600;23.556;2023-08-06T03:04:48;92216.44;;;20.32;100.00
10466;BME280;5280;42.600;23.556;2023-08-06T03:07:14;92241.59;;;20.44;100.00
10466;BME280;5280;42.600;23.556;2023-08-06T03:09:41;92224.03;;;20.35;100.00
10466;BME280;5280;42.600;23.556;2023-08-06T03:12:08;92228.78;;;20.33;100.00
10466;BME280;5280;42.600;23.556;2023-08-06T03:14:34;92255.19;;;20.43;100.00
10466;BME280;5280;42.600;23.556;2023-08-06T03:17:01;92252.13;;;20.39;100.00
10466;BME280;5280;42.600;23.556;2023-08-06T03:19:29;92223.41;;;20.20;100.00
10466;BME280;5280;42.600;23.556;2023-08-06T03:21:56;92181.53;;;20.06;100.00
10466;BME280;5280;42.600;23.556;2023-08-06T03:24:23;92194.72;;;20.20;100.00
10466;BME280;5280;42.600;23.556;2023-08-06T03:26:50;92201.34;;;20.31;100.00
10466;BME280;5280;42.600;23.556;2023-08-06T03:29:17;92167.25;;;20.18;100.00
10466;BME280;5280;42.600;23.556;2023-08-06T03:31:44;92198.25;;;20.34;100.00
10466;BME280;5280;42.600;23.556;2023-08-06T03:34:10;92226.72;;;20.35;100.00
10466;BME280;5280;42.600;23.556;2023-08-06T03:36:39;92260.56;;;20.30;100.00
10466;BME280;5280;42.600;23.556;2023-08-06T03:39:06;92263.66;;;20.33;100.00
10466;BME280;5280;42.600;23.556;2023-08-06T03:41:33;92248.56;;;20.19;100.00
10466;BME280;5280;42.600;23.556;2023-08-06T03:44:00;92258.53;;;20.32;100.00
10466;BME280;5280;42.600;23.556;2023-08-06T03:46:28;92254.00;;;20.32;100.00
10466;BME280;5280;42.600;23.556;2023-08-06T03:48:54;92260.34;;;20.25;100.00
10466;BME280;5280;42.600;23.556;2023-08-06T03:51:22;92274.38;;;20.20;100.00
10466;BME280;5280;42.600;23.556;2023-08-06T03:53:51;92271.28;;;20.23;100.00
10466;BME280;5280;42.600;23.556;2023-08-06T03:56:17;92249.81;;;20.23;100.00
10466;BME280;5280;42.600;23.556;2023-08-06T03:58:44;92246.31;;;20.29;100.00
10466;BME280;5280;42.600;23.556;2023-08-06T04:01:11;92262.25;;;20.31;100.00
10466;BME280;5280;42.600;23.556;2023-08-06T04:03:38;92214.75;;;19.92;100.00
10466;BME280;5280;42.600;23.556;2023-08-06T04:06:05;92269.22;;;20.18;100.00
10466;BME280;5280;42.600;23.556;2023-08-06T04:08:32;92257.25;;;20.01;100.00
10466;BME280;5280;42.600;23.556;2023-08-06T04:11:00;92251.06;;;20.14;100.00
10466;BME280;5280;42.600;23.556;2023-08-06T04:13:27;92177.81;;;19.74;100.00
10466;BME280;5280;42.600;23.556;2023-08-06T04:15:54;92245.06;;;20.25;100.00
10466;BME280;5280;42.600;23.556;2023-08-06T04:18:21;92248.97;;;20.23;100.00
10466;BME280;5280;42.600;23.556;2023-08-06T04:20:48;92228.34;;;20.23;100.00
10466;BME280;5280;42.600;23.556;2023-08-06T04:23:15;92232.69;;;20.24;100.00
10466;BME280;5280;42.600;23.556;2023-08-06T04:25:41;92236.19;;;20.18;100.00
10466;BME280;5280;42.600;23.556;2023-08-06T04:28:09;92244.44;;;20.23;100.00
10466;BME280;5280;42.600;23.556;2023-08-06T04:30:37;92229.59;;;20.27;100.00
10466;BME280;5280;42.600;23.556;2023-08-06T04:33:04;92223.81;;;20.30;100.00
10466;BME280;5280;42.600;23.556;2023-08-06T04:35:30;92229.41;;;20.35;100.00
10466;BME280;5280;42.600;23.556;2023-08-06T04:37:57;92189.16;;;20.22;100.00
10466;BME280;5280;42.600;23.556;2023-08-06T04:40:24;92193.91;;;20.33;100.00
10466;BME280;5280;42.600;23.556;2023-08-06T04:42:50;92186.69;;;20.40;100.00
10466;BME280;5280;42.600;23.556;2023-08-06T04:45:19;92205.03;;;20.43;100.00
10466;BME280;5280;42.600;23.556;2023-08-06T04:47:45;92191.00;;;20.15;100.00
10466;BME280;5280;42.600;23.556;2023-08-06T04:50:12;92229.81;;;20.39;100.00
10466;BME280;5280;42.600;23.556;2023-08-06T04:52:39;92207.50;;;20.25;100.00
10466;BME280;5280;42.600;23.556;2023-08-06T04:55:06;92153.06;;;19.92;100.00
10466;BME280;5280;42.600;23.556;2023-08-06T04:57:32;92205.06;;;20.37;100.00
10466;BME280;5280;42.600;23.556;2023-08-06T04:59:59;92192.03;;;20.34;100.00
10466;BME280;5280;42.600;23.556;2023-08-06T05:02:28;92197.84;;;20.37;100.00
10466;BME280;5280;42.600;23.556;2023-08-06T05:04:54;92202.34;;;20.50;100.00
10466;BME280;5280;42.600;23.556;2023-08-06T05:07:21;92200.06;;;20.53;100.00
10466;BME280;5280;42.600;23.556;2023-08-06T05:09:48;92203.38;;;20.55;100.00
10466;BME280;5280;42.600;23.556;2023-08-06T05:12:14;92183.16;;;20.46;100.00
10466;BME280;5280;42.600;23.556;2023-08-06T05:14:41;92189.75;;;20.57;100.00
10466;BME280;5280;42.600;23.556;2023-08-06T05:17:08;92198.19;;;20.67;100.00
10466;BME280;5280;42.600;23.556;2023-08-06T05:19:36;92196.94;;;20.70;100.00
10466;BME280;5280;42.600;23.556;2023-08-06T05:22:03;92202.53;;;20.61;100.00
10466;BME280;5280;42.600;23.556;2023-08-06T05:24:30;92200.88;;;20.67;100.00
10466;BME280;5280;42.600;23.556;2023-08-06T05:26:56;92200.84;;;20.74;100.00
10466;BME280;5280;42.600;23.556;2023-08-06T05:29:23;92201.22;;;20.77;100.00
10466;BME280;5280;42.600;23.556;2023-08-06T05:31:50;92202.25;;;20.83;100.00
10466;BME280;5280;42.600;23.556;2023-08-06T05:34:16;92191.94;;;20.80;100.00
10466;BME280;5280;42.600;23.556;2023-08-06T05:36:44;92155.84;;;20.62;100.00
10466;BME280;5280;42.600;23.556;2023-08-06T05:39:11;92196.06;;;20.82;100.00
10466;BME280;5280;42.600;23.556;2023-08-06T05:41:38;92202.69;;;20.86;100.00
10466;BME280;5280;42.600;23.556;2023-08-06T05:44:05;92188.19;;;20.87;100.00
10466;BME280;5280;42.600;23.556;2023-08-06T05:46:31;92187.38;;;20.87;100.00
10466;BME280;5280;42.600;23.556;2023-08-06T05:48:58;92137.09;;;20.49;100.00
10466;BME280;5280;42.600;23.556;2023-08-06T05:51:26;92196.66;;;20.91;100.00
10466;BME280;5280;42.600;23.556;2023-08-06T05:53:54;92202.44;;;20.94;100.00
10466;BME280;5280;42.600;23.556;2023-08-06T05:56:25;92191.09;;;20.86;100.00
10466;BME280;5280;42.600;23.556;2023-08-06T05:58:52;92195.66;;;20.85;100.00
10466;BME280;5280;42.600;23.556;2023-08-06T06:01:18;92221.22;;;20.94;100.00
10466;BME280;5280;42.600;23.556;2023-08-06T06:03:47;92237.16;;;20.96;100.00
10466;BME280;5280;42.600;23.556;2023-08-06T06:06:14;92233.03;;;20.87;100.00
10466;BME280;5280;42.600;23.556;2023-08-06T06:08:41;92231.19;;;20.81;100.00
10466;BME280;5280;42.600;23.556;2023-08-06T06:11:12;92236.56;;;20.81;100.00
10466;BME280;5280;42.600;23.556;2023-08-06T06:13:39;92252.25;;;20.84;100.00
10466;BME280;5280;42.600;23.556;2023-08-06T06:16:06;92239.88;;;20.76;100.00
10466;BME280;5280;42.600;23.556;2023-08-06T06:18:33;92261.13;;;20.78;100.00
10466;BME280;5280;42.600;23.556;2023-08-06T06:20:59;92260.53;;;20.76;100.00
10466;BME280;5280;42.600;23.556;2023-08-06T06:23:26;92244.22;;;20.57;100.00
10466;BME280;5280;42.600;23.556;2023-08-06T06:25:53;92266.31;;;20.73;100.00
10466;BME280;5280;42.600;23.556;2023-08-06T06:28:22;92266.31;;;20.73;100.00
10466;BME280;5280;42.600;23.556;2023-08-06T06:30:49;92206.91;;;20.36;100.00
10466;BME280;5280;42.600;23.556;2023-08-06T06:33:16;92275.00;;;20.75;100.00
10466;BME280;5280;42.600;23.556;2023-08-06T06:35:42;92274.16;;;20.74;100.00
10466;BME280;5280;42.600;23.556;2023-08-06T06:38:09;92260.16;;;20.66;100.00
10466;BME280;5280;42.600;23.556;2023-08-06T06:40:36;92217.44;;;20.31;100.00
10466;BME280;5280;42.600;23.556;2023-08-06T06:43:03;92282.41;;;20.73;100.00
10466;BME280;5280;42.600;23.556;2023-08-06T06:45:31;92287.38;;;20.69;100.00
10466;BME280;5280;42.600;23.556;2023-08-06T06:47:58;92288.66;;;20.60;100.00
10466;BME280;5280;42.600;23.556;2023-08-06T06:50:24;92299.38;;;20.67;100.00
10466;BME280;5280;42.600;23.556;2023-08-06T06:52:51;92302.66;;;20.69;100.00
10466;BME280;5280;42.600;23.556;2023-08-06T06:55:18;92296.91;;;20.65;100.00
10466;BME280;5280;42.600;23.556;2023-08-06T06:57:48;92290.09;;;20.49;100.00
10466;BME280;5280;42.600;23.556;2023-08-06T07:00:14;92323.75;;;20.65;100.00
10466;BME280;5280;42.600;23.556;2023-08-06T07:02:42;92309.69;;;20.63;100.00
10466;BME280;5280;42.600;23.556;2023-08-06T07:05:09;92310.13;;;20.67;100.00
10466;BME280;5280;42.600;23.556;2023-08-06T07:07:36;92322.09;;;20.71;100.00
10466;BME280;5280;42.600;23.556;2023-08-06T07:10:07;92303.72;;;20.61;100.00
10466;BME280;5280;42.600;23.556;2023-08-06T07:12:34;92328.50;;;20.70;100.00
10466;BME280;5280;42.600;23.556;2023-08-06T07:15:03;92269.88;;;20.34;100.00
10466;BME280;5280;42.600;23.556;2023-08-06T07:17:30;92303.28;;;20.57;100.00
10466;BME280;5280;42.600;23.556;2023-08-06T07:19:58;92311.75;;;20.68;100.00
10466;BME280;5280;42.600;23.556;2023-08-06T07:22:25;92325.78;;;20.83;100.00
10466;BME280;5280;42.600;23.556;2023-08-06T07:24:51;92313.81;;;20.85;100.00
10466;BME280;5280;42.600;23.556;2023-08-06T07:27:18;92329.06;;;20.98;100.00
10466;BME280;5280;42.600;23.556;2023-08-06T07:29:45;92319.19;;;20.92;100.00
10466;BME280;5280;42.600;23.556;2023-08-06T07:32:13;92322.28;;;21.02;100.00
10466;BME280;5280;42.600;23.556;2023-08-06T07:34:43;92322.25;;;21.15;100.00
10466;BME280;5280;42.600;23.556;2023-08-06T07:37:11;92304.25;;;21.09;100.00
10466;BME280;5280;42.600;23.556;2023-08-06T07:39:38;92316.88;;;21.22;100.00
10466;BME280;5280;42.600;23.556;2023-08-06T07:42:05;92303.22;;;21.10;100.00
10466;BME280;5280;42.600;23.556;2023-08-06T07:44:32;92316.06;;;21.21;100.00
10466;BME280;5280;42.600;23.556;2023-08-06T07:46:59;92311.47;;;21.28;100.00
10466;BME280;5280;42.600;23.556;2023-08-06T07:49:26;92293.28;;;21.30;100.00
10466;BME280;5280;42.600;23.556;2023-08-06T07:51:53;92313.06;;;21.49;100.00
10466;BME280;5280;42.600;23.556;2023-08-06T07:54:21;92299.59;;;21.56;100.00
10466;BME280;5280;42.600;23.556;2023-08-06T07:56:49;92279.28;;;21.60;100.00
10466;BME280;5280;42.600;23.556;2023-08-06T07:59:16;92307.56;;;21.75;100.00
10466;BME280;5280;42.600;23.556;2023-08-06T08:01:43;92299.78;;;21.92;100.00
10466;BME280;5280;42.600;23.556;2023-08-06T08:04:09;92300.19;;;22.02;100.00
10466;BME280;5280;42.600;23.556;2023-08-06T08:06:36;92309.41;;;22.19;100.00
10466;BME280;5280;42.600;23.556;2023-08-06T08:09:03;92298.97;;;22.29;100.00
10466;BME280;5280;42.600;23.556;2023-08-06T08:11:31;92285.97;;;22.51;100.00
10466;BME280;5280;42.600;23.556;2023-08-06T08:14:00;92285.25;;;22.62;100.00
10466;BME280;5280;42.600;23.556;2023-08-06T08:16:28;92296.69;;;22.83;100.00
10466;BME280;5280;42.600;23.556;2023-08-06T08:18:54;92305.41;;;22.85;100.00
10466;BME280;5280;42.600;23.556;2023-08-06T08:21:21;92313.53;;;22.78;100.00
10466;BME280;5280;42.600;23.556;2023-08-06T08:23:49;92292.06;;;22.65;100.00
10466;BME280;5280;42.600;23.556;2023-08-06T08:26:16;92316.69;;;22.75;100.00
10466;BME280;5280;42.600;23.556;2023-08-06T08:28:44;92326.34;;;22.83;100.00
10466;BME280;5280;42.600;23.556;2023-08-06T08:31:11;92305.97;;;22.62;100.00
10466;BME280;5280;42.600;23.556;2023-08-06T08:33:38;92313.16;;;22.68;100.00
10466;BME280;5280;42.600;23.556;2023-08-06T08:36:05;92268.25;;;22.37;100.00
10466;BME280;5280;42.600;23.556;2023-08-06T08:38:32;92321.97;;;22.82;100.00
10466;BME280;5280;42.600;23.556;2023-08-06T08:40:59;92260.41;;;22.60;100.00
10466;BME280;5280;42.600;23.556;2023-08-06T08:43:27;92302.88;;;23.08;100.00
10466;BME280;5280;42.600;23.556;2023-08-06T08:45:55;92310.75;;;23.09;100.00
10466;BME280;5280;42.600;23.556;2023-08-06T08:48:24;92304.31;;;23.10;100.00
10466;BME280;5280;42.600;23.556;2023-08-06T08:50:52;92263.66;;;22.94;100.00
10466;BME280;5280;42.600;23.556;2023-08-06T08:53:21;92288.81;;;23.24;98.42
10466;BME280;5280;42.600;23.556;2023-08-06T08:55:49;92279.75;;;23.37;100.00
10466;BME280;5280;42.600;23.556;2023-08-06T08:58:16;92267.94;;;23.38;100.00
10466;BME280;5280;42.600;23.556;2023-08-06T09:00:45;92284.03;;;23.63;100.00
10466;BME280;5280;42.600;23.556;2023-08-06T09:03:16;92257.31;;;23.61;99.37
10466;BME280;5280;42.600;23.556;2023-08-06T09:05:44;92253.53;;;23.80;100.00
10466;BME280;5280;42.600;23.556;2023-08-06T09:08:12;92247.94;;;23.93;100.00
10466;BME280;5280;42.600;23.556;2023-08-06T09:10:43;92257.97;;;24.05;98.78
10466;BME280;5280;42.600;23.556;2023-08-06T09:13:09;92261.69;;;24.03;97.29
10466;BME280;5280;42.600;23.556;2023-08-06T09:15:38;92264.41;;;24.03;82.20
10466;BME280;5280;42.600;23.556;2023-08-06T09:18:09;92248.69;;;24.12;85.29
10466;BME280;5280;42.600;23.556;2023-08-06T09:20:41;92251.34;;;24.19;87.34
10466;BME280;5280;42.600;23.556;2023-08-06T09:23:09;92251.25;;;24.37;85.42
10466;BME280;5280;42.600;23.556;2023-08-06T09:25:38;92256.47;;;24.50;82.25
10466;BME280;5280;42.600;23.556;2023-08-06T09:28:06;92248.47;;;24.55;83.15
10466;BME280;5280;42.600;23.556;2023-08-06T09:30:41;92133.97;;;23.91;81.63
10466;BME280;5280;42.600;23.556;2023-08-06T09:33:09;92254.59;;;24.62;78.22
10466;BME280;5280;42.600;23.556;2023-08-06T09:35:38;92244.47;;;24.81;80.42
10466;BME280;5280;42.600;23.556;2023-08-06T09:38:06;92240.88;;;24.87;78.91
10466;BME280;5280;42.600;23.556;2023-08-06T09:40:34;92253.81;;;25.08;78.28
10466;BME280;5280;42.600;23.556;2023-08-06T09:43:02;92215.63;;;25.05;75.07
10466;BME280;5280;42.600;23.556;2023-08-06T09:45:32;92224.91;;;25.09;73.79
10466;BME280;5280;42.600;23.556;2023-08-06T09:47:59;92252.03;;;25.14;70.21
10466;BME280;5280;42.600;23.556;2023-08-06T09:50:29;92214.88;;;24.86;72.33
10466;BME280;5280;42.600;23.556;2023-08-06T09:52:59;92241.34;;;25.07;76.37
10466;BME280;5280;42.600;23.556;2023-08-06T09:55:26;92236.16;;;25.17;75.25
10466;BME280;5280;42.600;23.556;2023-08-06T09:57:54;92246.25;;;25.34;68.28
10466;BME280;5280;42.600;23.556;2023-08-06T10:00:22;92245.75;;;25.48;67.28
10466;BME280;5280;42.600;23.556;2023-08-06T10:02:49;92234.34;;;25.46;67.62
10466;BME280;5280;42.600;23.556;2023-08-06T10:05:20;92256.59;;;25.60;68.06
10466;BME280;5280;42.600;23.556;2023-08-06T10:07:48;92230.03;;;25.34;67.24
10466;BME280;5280;42.600;23.556;2023-08-06T10:10:17;92258.22;;;25.61;65.26
10466;BME280;5280;42.600;23.556;2023-08-06T10:12:49;92252.69;;;25.56;65.26
10466;BME280;5280;42.600;23.556;2023-08-06T10:15:21;92256.44;;;25.66;60.60
10466;BME280;5280;42.600;23.556;2023-08-06T10:17:51;92249.16;;;25.67;62.49
10466;BME280;5280;42.600;23.556;2023-08-06T10:20:18;92268.38;;;25.94;57.66
10466;BME280;5280;42.600;23.556;2023-08-06T10:22:59;92238.84;;;25.81;59.02
10466;BME280;5280;42.600;23.556;2023-08-06T10:25:30;92240.91;;;25.74;61.54
10466;BME280;5280;42.600;23.556;2023-08-06T10:27:58;92276.59;;;25.99;58.48
10466;BME280;5280;42.600;23.556;2023-08-06T10:30:26;92263.28;;;25.97;60.85
10466;BME280;5280;42.600;23.556;2023-08-06T10:32:57;92253.41;;;25.91;57.80
10466;BME280;5280;42.600;23.556;2023-08-06T10:35:34;92241.97;;;25.61;59.43
10466;BME280;5280;42.600;23.556;2023-08-06T10:38:08;92271.03;;;25.54;59.86
10466;BME280;5280;42.600;23.556;2023-08-06T10:40:37;92274.34;;;25.44;59.70
10466;BME280;5280;42.600;23.556;2023-08-06T10:43:07;92272.72;;;25.32;59.18
10466;BME280;5280;42.600;23.556;2023-08-06T10:45:36;92282.81;;;25.36;61.09
10466;BME280;5280;42.600;23.556;2023-08-06T10:48:03;92284.63;;;25.19;58.49
10466;BME280;5280;42.600;23.556;2023-08-06T10:50:30;92283.44;;;25.15;60.94
10466;BME280;5280;42.600;23.556;2023-08-06T10:52:58;92265.91;;;25.06;58.15
10466;BME280;5280;42.600;23.556;2023-08-06T10:55:30;92294.50;;;25.13;61.41
10466;BME280;5280;42.600;23.556;2023-08-06T10:57:59;92269.63;;;24.81;61.89
10466;BME280;5280;42.600;23.556;2023-08-06T11:00:26;92302.19;;;24.86;59.42
10466;BME280;5280;42.600;23.556;2023-08-06T11:02:53;92306.69;;;24.93;57.94
10466;BME280;5280;42.600;23.556;2023-08-06T11:05:20;92295.50;;;24.77;60.67
10466;BME280;5280;42.600;23.556;2023-08-06T11:07:47;92312.31;;;24.79;61.07
10466;BME280;5280;42.600;23.556;2023-08-06T11:10:16;92313.19;;;24.62;62.75
10466;BME280;5280;42.600;23.556;2023-08-06T11:12:46;92325.31;;;24.59;61.25
10466;BME280;5280;42.600;23.556;2023-08-06T11:15:14;92328.31;;;24.51;61.28
10466;BME280;5280;42.600;23.556;2023-08-06T11:17:41;92323.03;;;24.44;62.55
10466;BME280;5280;42.600;23.556;2023-08-06T11:20:10;92330.75;;;24.41;62.34
10466;BME280;5280;42.600;23.556;2023-08-06T11:22:38;92332.00;;;24.27;64.28
10466;BME280;5280;42.600;23.556;2023-08-06T11:25:07;92327.69;;;24.26;65.04
10466;BME280;5280;42.600;23.556;2023-08-06T11:27:34;92312.22;;;24.15;66.16
10466;BME280;5280;42.600;23.556;2023-08-06T11:30:01;92328.34;;;24.21;66.50
10466;BME280;5280;42.600;23.556;2023-08-06T11:32:29;92300.00;;;24.12;67.08
10466;BME280;5280;42.600;23.556;2023-08-06T11:34:58;92322.16;;;24.21;66.86
10466;BME280;5280;42.600;23.556;2023-08-06T11:37:25;92325.19;;;24.24;65.94
10466;BME280;5280;42.600;23.556;2023-08-06T11:39:52;92315.81;;;24.27;68.51
10466;BME280;5280;42.600;23.556;2023-08-06T11:42:18;92309.16;;;24.41;64.51
10466;BME280;5280;42.600;23.556;2023-08-06T11:44:45;92323.31;;;24.55;65.20
10466;BME280;5280;42.600;23.556;2023-08-06T11:47:14;92306.63;;;24.58;60.49
10466;BME280;5280;42.600;23.556;2023-08-06T11:49:44;92320.97;;;24.81;62.01
10466;BME280;5280;42.600;23.556;2023-08-06T11:52:17;92320.81;;;24.95;62.49
10466;BME280;5280;42.600;23.556;2023-08-06T11:54:59;92318.25;;;25.00;57.00
10466;BME280;5280;42.600;23.556;2023-08-06T11:57:26;92327.19;;;25.00;58.64
10466;BME280;5280;42.600;23.556;2023-08-06T11:59:58;92322.09;;;24.92;54.74
10466;BME280;5280;42.600;23.556;2023-08-06T12:02:31;92328.19;;;24.88;52.22
10466;BME280;5280;42.600;23.556;2023-08-06T12:05:09;92322.63;;;24.82;53.71
10466;BME280;5280;42.600;23.556;2023-08-06T12:07:38;92314.50;;;24.71;53.22
10466;BME280;5280;42.600;23.556;2023-08-06T12:10:06;92313.09;;;24.68;55.08
10466;BME280;5280;42.600;23.556;2023-08-06T12:12:33;92321.44;;;24.55;55.11
10466;BME280;5280;42.600;23.556;2023-08-06T12:15:00;92304.56;;;24.30;54.11
10466;BME280;5280;42.600;23.556;2023-08-06T12:17:27;92327.75;;;24.49;56.28
10466;BME280;5280;42.600;23.556;2023-08-06T12:19:54;92335.13;;;24.42;55.25
10466;BME280;5280;42.600;23.556;2023-08-06T12:22:22;92324.03;;;24.32;57.44
10466;BME280;5280;42.600;23.556;2023-08-06T12:24:49;92321.47;;;24.37;59.80
10466;BME280;5280;42.600;23.556;2023-08-06T12:27:16;92312.78;;;24.35;59.19
10466;BME280;5280;42.600;23.556;2023-08-06T12:29:43;92321.03;;;24.40;58.78
10466;BME280;5280;42.600;23.556;2023-08-06T12:32:11;92315.28;;;24.48;59.83
10466;BME280;5280;42.600;23.556;2023-08-06T12:34:38;92322.13;;;24.51;60.27
10466;BME280;5280;42.600;23.556;2023-08-06T12:37:05;92293.91;;;24.35;58.10
10466;BME280;5280;42.600;23.556;2023-08-06T12:39:34;92330.59;;;24.66;57.88
10466;BME280;5280;42.600;23.556;2023-08-06T12:42:01;92253.94;;;24.25;58.77
10466;BME280;5280;42.600;23.556;2023-08-06T12:44:28;92265.81;;;24.36;60.33
10466;BME280;5280;42.600;23.556;2023-08-06T12:46:55;92304.91;;;24.75;60.64
10466;BME280;5280;42.600;23.556;2023-08-06T12:49:22;92319.50;;;24.85;58.19
10466;BME280;5280;42.600;23.556;2023-08-06T12:51:50;92318.41;;;24.86;59.74
10466;BME280;5280;42.600;23.556;2023-08-06T12:54:18;92316.41;;;24.82;55.67
10466;BME280;5280;42.600;23.556;2023-08-06T12:56:46;92315.84;;;24.80;58.56
10466;BME280;5280;42.600;23.556;2023-08-06T12:59:14;92313.34;;;24.78;59.56
10466;BME280;5280;42.600;23.556;2023-08-06T13:01:41;92312.88;;;24.81;56.13